Time;durP1;ratioP1;P1;durP2;ratioP2;P2;SDS_P1;SDS_P2;PMS_P1;PMS_P2;Temp;Humidity;BMP_temperature;BMP_pressure;BME280_temperature;BME280_humidity;BME280_pressure;Samples;Min_cycle;Max_cycle;Signal;HPM_P1;HPM_P2
2024/03/12 00:01:26;;;;;;;0.98;0.57;;;;;;;;;;6319679;28;20035;-78
2024/03/12 00:04:28;;;;;;;0.30;0.30;;;;;;;;;;6319384;28;20173;-79
2024/03/12 00:07:30;;;;;;;0.30;0.30;;;;;;;;;;6309240;28;20127;-78
2024/03/12 00:10:31;;;;;;;0.30;0.30;;;;;;;;;;6317307;28;20036;-78
2024/03/12 00:13:31;;;;;;;0.50;0.30;;;;;;;;;;6298791;28;20078;-79
2024/03/12 00:16:31;;;;;;;0.43;0.40;;;;;;;;;;6319095;28;20054;-79
2024/03/12 00:19:33;;;;;;;0.30;0.30;;;;;;;;;;6317759;28;20024;-78
2024/03/12 00:22:33;;;;;;;0.20;0.20;;;;;;;;;;6317327;28;20432;-79
2024/03/12 00:25:34;;;;;;;0.27;0.27;;;;;;;;;;6319397;28;20044;-78
2024/03/12 00:28:34;;;;;;;0.23;0.20;;;;;;;;;;6314269;28;20028;-78
2024/03/12 00:31:35;;;;;;;0.40;0.30;;;;;;;;;;6319643;28;20032;-80
2024/03/12 00:34:35;;;;;;;;;;;;;;;;;;6318431;28;20090;-80
2024/03/12 00:37:38;;;;;;;0.32;0.30;;;;;;;;;;6315870;28;19912;-79
2024/03/12 00:40:39;;;;;;;0.35;0.35;;;;;;;;;;6318177;28;20077;-79
2024/03/12 00:43:39;;;;;;;0.30;0.30;;;;;;;;;;6319871;28;20370;-79
2024/03/12 00:46:40;;;;;;;0.35;0.30;;;;;;;;;;6322227;28;20297;-80
2024/03/12 00:49:40;;;;;;;0.40;0.40;;;;;;;;;;6322256;28;20035;-79
2024/03/12 00:52:41;;;;;;;0.40;0.40;;;;;;;;;;6319688;28;20380;-78
2024/03/12 00:55:42;;;;;;;0.32;0.30;;;;;;;;;;6321818;28;20028;-78
2024/03/12 00:58:42;;;;;;;0.30;0.30;;;;;;;;;;6306353;28;20071;-78
2024/03/12 01:01:42;;;;;;;0.50;0.40;;;;;;;;;;6322136;28;20028;-78
2024/03/12 01:04:43;;;;;;;0.33;0.33;;;;;;;;;;6322979;28;20533;-79
2024/03/12 01:07:43;;;;;;;0.33;0.30;;;;;;;;;;6322404;28;20499;-79
2024/03/12 01:10:45;;;;;;;0.50;0.50;;;;;;;;;;6317982;28;20385;-79
2024/03/12 01:13:47;;;;;;;1.27;0.45;;;;;;;;;;6320216;28;20042;-79
2024/03/12 01:16:47;;;;;;;0.40;0.40;;;;;;;;;;6320145;28;20077;-79
2024/03/12 01:19:48;;;;;;;0.30;0.30;;;;;;;;;;6320453;28;20121;-79
2024/03/12 01:22:50;;;;;;;0.40;0.40;;;;;;;;;;6322581;28;20249;-79
2024/03/12 01:25:50;;;;;;;0.28;0.28;;;;;;;;;;6321423;28;20340;-79
2024/03/12 01:28:51;;;;;;;0.63;0.40;;;;;;;;;;6301137;28;20031;-79
2024/03/12 01:31:52;;;;;;;0.45;0.43;;;;;;;;;;6319838;28;20103;-79
2024/03/12 01:34:52;;;;;;;0.52;0.50;;;;;;;;;;6317048;28;20104;-79
2024/03/12 01:37:53;;;;;;;0.50;0.40;;;;;;;;;;6316050;28;20090;-79
2024/03/12 01:40:53;;;;;;;0.43;0.43;;;;;;;;;;6320141;28;20059;-79
2024/03/12 01:44:02;;;;;;;1.43;0.60;;;;;;;;;;6305426;28;20027;-79
2024/03/12 01:47:04;;;;;;;0.55;0.52;;;;;;;;;;6298948;28;20440;-79
2024/03/12 01:50:07;;;;;;;0.90;0.50;;;;;;;;;;6318086;28;20563;-79
2024/03/12 01:53:07;;;;;;;0.75;0.60;;;;;;;;;;6320761;28;20054;-79
2024/03/12 01:56:07;;;;;;;0.43;0.43;;;;;;;;;;6311681;28;20028;-79
2024/03/12 01:59:08;;;;;;;0.50;0.50;;;;;;;;;;6303985;28;20028;-79
2024/03/12 02:02:08;;;;;;;0.77;0.63;;;;;;;;;;6302520;28;20016;-79
2024/03/12 02:05:10;;;;;;;0.47;0.43;;;;;;;;;;6313866;28;20126;-79
2024/03/12 02:08:10;;;;;;;0.63;0.50;;;;;;;;;;6300839;28;20468;-79
2024/03/12 02:11:11;;;;;;;0.90;0.60;;;;;;;;;;6321881;28;20020;-80
2024/03/12 02:14:12;;;;;;;0.77;0.50;;;;;;;;;;6314491;28;20262;-79
2024/03/12 02:17:12;;;;;;;0.60;0.60;;;;;;;;;;6303804;28;20035;-79
2024/03/12 02:20:13;;;;;;;0.63;0.63;;;;;;;;;;6320490;28;20027;-80
2024/03/12 02:23:13;;;;;;;0.68;0.60;;;;;;;;;;6317888;28;20024;-79
2024/03/12 02:26:13;;;;;;;0.77;0.60;;;;;;;;;;6300238;28;20071;-78
2024/03/12 02:29:13;;;;;;;1.77;0.60;;;;;;;;;;6322464;28;20046;-79
2024/03/12 02:32:14;;;;;;;0.70;0.70;;;;;;;;;;6316177;28;20077;-80
2024/03/12 02:35:15;;;;;;;0.97;0.80;;;;;;;;;;6320448;28;20157;-81
2024/03/12 02:38:15;;;;;;;0.60;0.55;;;;;;;;;;6318357;28;20099;-81
2024/03/12 02:41:15;;;;;;;0.73;0.73;;;;;;;;;;6319774;28;20104;-80
2024/03/12 02:44:16;;;;;;;0.60;0.60;;;;;;;;;;6319872;28;20460;-80
2024/03/12 02:47:20;;;;;;;0.63;0.60;;;;;;;;;;6302308;28;20035;-80
2024/03/12 02:50:21;;;;;;;0.90;0.77;;;;;;;;;;6318866;28;20027;-80
2024/03/12 02:53:22;;;;;;;1.38;0.68;;;;;;;;;;6295989;28;20067;-80
2024/03/12 02:56:22;;;;;;;0.77;0.70;;;;;;;;;;6319884;28;20031;-80
2024/03/12 02:59:27;;;;;;;0.53;0.53;;;;;;;;;;6317264;28;20031;-81
2024/03/12 03:02:29;;;;;;;0.68;0.68;;;;;;;;;;6317838;28;20551;-81
2024/03/12 03:05:29;;;;;;;0.85;0.77;;;;;;;;;;6293795;28;20059;-81
2024/03/12 03:08:31;;;;;;;0.53;0.53;;;;;;;;;;6313613;28;20024;-80
2024/03/12 03:11:32;;;;;;;0.50;0.50;;;;;;;;;;6321235;28;20020;-80
2024/03/12 03:14:32;;;;;;;1.20;0.70;;;;;;;;;;6320038;28;20008;-80
2024/03/12 03:17:32;;;;;;;0.90;0.77;;;;;;;;;;6320875;28;20423;-80
2024/03/12 03:20:32;;;;;;;1.20;0.70;;;;;;;;;;6315758;28;20017;-81
2024/03/12 03:23:34;;;;;;;0.73;0.70;;;;;;;;;;6317326;28;20393;-81
2024/03/12 03:26:35;;;;;;;1.30;0.70;;;;;;;;;;6302778;28;20060;-81
2024/03/12 03:29:35;;;;;;;0.80;0.70;;;;;;;;;;6322204;28;20039;-81
2024/03/12 03:32:35;;;;;;;0.87;0.60;;;;;;;;;;6318132;28;20024;-81
2024/03/12 03:35:36;;;;;;;0.70;0.70;;;;;;;;;;6317949;28;20044;-81
2024/03/12 03:38:40;;;;;;;0.73;0.73;;;;;;;;;;6298030;28;20438;-80
2024/03/12 03:41:40;;;;;;;0.60;0.60;;;;;;;;;;6300377;28;20085;-81
2024/03/12 03:44:40;;;;;;;0.70;0.67;;;;;;;;;;6316335;28;20059;-81
2024/03/12 03:47:40;;;;;;;2.17;0.50;;;;;;;;;;6319594;28;20711;-81
2024/03/12 03:50:41;;;;;;;0.53;0.50;;;;;;;;;;6318807;28;20389;-81
2024/03/12 03:53:41;;;;;;;0.57;0.50;;;;;;;;;;6300616;28;20033;-81
2024/03/12 03:56:42;;;;;;;0.50;0.50;;;;;;;;;;6284323;28;20027;-81
2024/03/12 03:59:42;;;;;;;0.40;0.40;;;;;;;;;;6315142;28;20074;-81
2024/03/12 04:02:44;;;;;;;1.10;0.40;;;;;;;;;;6302218;28;20388;-82
2024/03/12 04:05:44;;;;;;;0.38;0.38;;;;;;;;;;6316347;28;20031;-81
2024/03/12 04:08:46;;;;;;;0.50;0.40;;;;;;;;;;6319344;28;20059;-81
2024/03/12 04:11:49;;;;;;;0.47;0.38;;;;;;;;;;6321112;28;20043;-81
2024/03/12 04:14:49;;;;;;;0.47;0.47;;;;;;;;;;6301057;28;20636;-81
2024/03/12 04:17:50;;;;;;;0.73;0.40;;;;;;;;;;6298603;28;20093;-81
2024/03/12 04:20:51;;;;;;;0.33;0.33;;;;;;;;;;6317206;28;20016;-81
2024/03/12 04:23:51;;;;;;;;;;;;;;;;;;6323387;28;20020;-81
2024/03/12 04:26:52;;;;;;;0.30;0.25;;;;;;;;;;6323789;28;19916;-81
2024/03/12 04:29:52;;;;;;;0.50;0.40;;;;;;;;;;6325211;28;20020;-81
2024/03/12 04:32:53;;;;;;;0.63;0.50;;;;;;;;;;6323496;28;20396;-79
2024/03/12 04:35:54;;;;;;;0.40;0.40;;;;;;;;;;6317699;28;20533;-80
2024/03/12 04:38:54;;;;;;;0.50;0.30;;;;;;;;;;6322809;28;20020;-81
2024/03/12 04:41:54;;;;;;;0.50;0.50;;;;;;;;;;6322482;28;20081;-80
2024/03/12 04:44:56;;;;;;;0.30;0.30;;;;;;;;;;6323924;28;20024;-81
2024/03/12 04:47:56;;;;;;;0.30;0.30;;;;;;;;;;6323421;28;20068;-81
2024/03/12 04:50:56;;;;;;;0.37;0.37;;;;;;;;;;6320868;28;20380;-80
2024/03/12 04:53:57;;;;;;;0.43;0.40;;;;;;;;;;6317785;28;20550;-80
2024/03/12 04:56:58;;;;;;;0.82;0.52;;;;;;;;;;6323248;28;20024;-80
2024/03/12 04:59:58;;;;;;;0.40;0.40;;;;;;;;;;6303977;28;20416;-80
2024/03/12 05:03:00;;;;;;;0.47;0.43;;;;;;;;;;6321331;28;20023;-80
2024/03/12 05:06:00;;;;;;;;;;;;;;;;;;6321987;28;20060;-80
2024/03/12 05:09:00;;;;;;;0.73;0.40;;;;;;;;;;6323355;28;19908;-80
2024/03/12 05:12:00;;;;;;;0.30;0.20;;;;;;;;;;6317084;28;20024;-80
2024/03/12 05:15:01;;;;;;;0.60;0.47;;;;;;;;;;6318965;28;20028;-80
2024/03/12 05:18:01;;;;;;;0.40;0.40;;;;;;;;;;6304751;28;20036;-80
2024/03/12 05:21:02;;;;;;;0.37;0.30;;;;;;;;;;6318723;28;20028;-80
2024/03/12 05:24:03;;;;;;;2.90;0.57;;;;;;;;;;6322229;28;20016;-80
2024/03/12 05:27:03;;;;;;;0.40;0.40;;;;;;;;;;6318870;28;20040;-80
2024/03/12 05:30:10;;;;;;;0.53;0.53;;;;;;;;;;6296513;28;20504;-81
2024/03/12 05:33:14;;;;;;;0.77;0.60;;;;;;;;;;6300370;28;20028;-80
2024/03/12 05:36:14;;;;;;;0.47;0.40;;;;;;;;;;6321011;28;20370;-80
2024/03/12 05:39:18;;;;;;;0.50;0.50;;;;;;;;;;6302768;28;20081;-80
2024/03/12 05:48:56;;;;;;;0.60;0.50;;;;;;;;;;6322367;28;20040;-80
2024/03/12 05:51:57;;;;;;;0.50;0.50;;;;;;;;;;6315515;28;20431;-79
2024/03/12 05:54:59;;;;;;;1.02;0.50;;;;;;;;;;6317715;28;20016;-80
2024/03/12 05:58:00;;;;;;;0.50;0.50;;;;;;;;;;6319781;28;20109;-79
2024/03/12 06:01:00;;;;;;;0.60;0.40;;;;;;;;;;6318341;28;20024;-79
2024/03/12 06:04:02;;;;;;;0.50;0.50;;;;;;;;;;6318941;28;20028;-79
2024/03/12 06:07:03;;;;;;;0.60;0.50;;;;;;;;;;6320494;28;20514;-80
2024/03/12 06:10:03;;;;;;;1.10;0.50;;;;;;;;;;6321286;28;20125;-79
2024/03/12 06:13:04;;;;;;;0.50;0.50;;;;;;;;;;6320227;28;20479;-79
2024/03/12 06:16:05;;;;;;;0.50;0.50;;;;;;;;;;6296745;28;20025;-79
2024/03/12 06:19:05;;;;;;;0.60;0.60;;;;;;;;;;6319431;28;20098;-78
2024/03/12 06:22:05;;;;;;;0.40;0.40;;;;;;;;;;6316382;28;20027;-78
2024/03/12 06:25:08;;;;;;;0.50;0.40;;;;;;;;;;6316695;28;20043;-78
2024/03/12 06:28:11;;;;;;;0.57;0.57;;;;;;;;;;6319790;28;20022;-78
2024/03/12 06:31:11;;;;;;;0.70;0.50;;;;;;;;;;6320969;28;20031;-79
2024/03/12 06:34:11;;;;;;;0.47;0.43;;;;;;;;;;6321164;28;20020;-79
2024/03/12 06:37:12;;;;;;;0.67;0.43;;;;;;;;;;6315429;28;20453;-79
2024/03/12 06:40:16;;;;;;;0.50;0.50;;;;;;;;;;6316765;28;20479;-78
2024/03/12 06:43:18;;;;;;;0.90;0.52;;;;;;;;;;6320315;28;20019;-78
2024/03/12 06:46:22;;;;;;;;;;;;;;;;;;6321941;28;20036;-80
2024/03/12 06:49:22;;;;;;;0.50;0.30;;;;;;;;;;6319299;28;19923;-80
2024/03/12 06:52:22;;;;;;;0.50;0.47;;;;;;;;;;6319118;28;20380;-79
2024/03/12 06:55:27;;;;;;;0.50;0.50;;;;;;;;;;6316876;28;20016;-80
2024/03/12 06:58:28;;;;;;;0.40;0.40;;;;;;;;;;6315250;28;20031;-78
2024/03/12 07:01:31;;;;;;;0.47;0.40;;;;;;;;;;6320097;28;20099;-80
2024/03/12 07:04:44;;;;;;;0.40;0.40;;;;;;;;;;6297367;28;20032;-78
2024/03/12 07:07:46;;;;;;;0.30;0.30;;;;;;;;;;6311173;28;20020;-79
2024/03/12 07:10:48;;;;;;;0.50;0.40;;;;;;;;;;6299022;28;20154;-80
2024/03/12 07:13:49;;;;;;;0.40;0.35;;;;;;;;;;6290112;28;20119;-82
2024/03/12 07:16:52;;;;;;;0.30;0.30;;;;;;;;;;6301674;28;20020;-82
2024/03/12 07:19:52;;;;;;;0.25;0.20;;;;;;;;;;6317742;28;20400;-81
2024/03/12 07:22:53;;;;;;;0.33;0.30;;;;;;;;;;6319560;28;20043;-83
2024/03/12 07:25:55;;;;;;;0.53;0.40;;;;;;;;;;6320055;28;20079;-81
2024/03/12 07:28:56;;;;;;;0.60;0.40;;;;;;;;;;6315567;28;20023;-83
2024/03/12 07:31:56;;;;;;;0.20;0.20;;;;;;;;;;6301354;28;20370;-81
2024/03/12 07:34:57;;;;;;;0.20;0.20;;;;;;;;;;6319358;28;20028;-81
2024/03/12 07:37:57;;;;;;;0.30;0.30;;;;;;;;;;6319156;28;20027;-82
2024/03/12 07:40:57;;;;;;;0.33;0.30;;;;;;;;;;6321071;28;20118;-81
2024/03/12 07:43:57;;;;;;;0.30;0.30;;;;;;;;;;6317209;28;20027;-81
2024/03/12 07:46:58;;;;;;;0.40;0.33;;;;;;;;;;6316432;28;20032;-80
2024/03/12 07:49:59;;;;;;;0.35;0.30;;;;;;;;;;6316856;28;20031;-81
2024/03/12 07:53:00;;;;;;;0.60;0.38;;;;;;;;;;6313897;28;20024;-80
2024/03/12 07:56:00;;;;;;;0.63;0.30;;;;;;;;;;6312423;28;20032;-81
2024/03/12 07:59:01;;;;;;;0.30;0.30;;;;;;;;;;6312517;28;20430;-80
2024/03/12 08:02:11;;;;;;;0.30;0.30;;;;;;;;;;6326651;28;20028;-81
2024/03/12 08:05:12;;;;;;;0.38;0.38;;;;;;;;;;6325949;28;20027;-83
2024/03/12 08:08:12;;;;;;;0.38;0.30;;;;;;;;;;6326862;28;20024;-83
2024/03/12 08:11:12;;;;;;;0.20;0.20;;;;;;;;;;6326415;28;20039;-83
2024/03/12 08:14:13;;;;;;;0.73;0.20;;;;;;;;;;6327217;28;20020;-85
2024/03/12 08:17:14;;;;;;;0.20;0.20;;;;;;;;;;6327779;28;20024;-83
2024/03/12 08:20:17;;;;;;;0.30;0.25;;;;;;;;;;6323433;28;20073;-83
2024/03/12 08:23:19;;;;;;;0.20;0.20;;;;;;;;;;6323605;28;20484;-84
2024/03/12 08:26:19;;;;;;;0.50;0.30;;;;;;;;;;6325231;28;20035;-80
2024/03/12 08:29:21;;;;;;;0.70;0.47;;;;;;;;;;6316255;28;20031;-79
2024/03/12 08:32:21;;;;;;;0.50;0.40;;;;;;;;;;6314861;28;20036;-79
2024/03/12 08:35:21;;;;;;;0.30;0.30;;;;;;;;;;6289893;28;20027;-80
2024/03/12 08:38:23;;;;;;;1.73;0.40;;;;;;;;;;6321050;28;20027;-80
2024/03/12 08:41:24;;;;;;;0.35;0.25;;;;;;;;;;5960433;28;9999658;-80
2024/03/12 08:44:24;;;;;;;0.37;0.23;;;;;;;;;;6322481;28;20035;-80
2024/03/12 08:47:25;;;;;;;0.53;0.30;;;;;;;;;;6308449;28;20020;-80
2024/03/12 08:50:25;;;;;;;0.30;0.30;;;;;;;;;;6325354;28;20119;-80
2024/03/12 08:53:25;;;;;;;0.57;0.40;;;;;;;;;;6323882;28;20484;-80
2024/03/12 08:56:26;;;;;;;0.70;0.60;;;;;;;;;;6318158;28;20024;-82
2024/03/12 08:59:26;;;;;;;0.50;0.50;;;;;;;;;;6311974;28;20027;-79
2024/03/12 09:02:27;;;;;;;0.40;0.33;;;;;;;;;;6306166;28;20024;-79
2024/03/12 09:05:27;;;;;;;0.30;0.30;;;;;;;;;;6321420;28;20040;-80
2024/03/12 09:08:29;;;;;;;0.50;0.40;;;;;;;;;;6324973;28;20035;-80
2024/03/12 09:11:30;;;;;;;0.20;0.20;;;;;;;;;;6317155;28;20027;-80
2024/03/12 09:14:30;;;;;;;0.23;0.23;;;;;;;;;;6324384;28;20465;-80
2024/03/12 09:17:30;;;;;;;0.30;0.30;;;;;;;;;;6307479;28;20020;-80
2024/03/12 09:20:31;;;;;;;1.77;0.40;;;;;;;;;;6325198;28;20024;-82
2024/03/12 09:23:31;;;;;;;0.23;0.23;;;;;;;;;;6316800;28;20385;-80
2024/03/12 09:26:33;;;;;;;0.20;0.20;;;;;;;;;;6320436;28;20294;-80
2024/03/12 09:29:35;;;;;;;0.20;0.20;;;;;;;;;;6302721;28;20122;-81
2024/03/12 09:32:36;;;;;;;0.30;0.30;;;;;;;;;;6307298;28;20028;-80
2024/03/12 09:35:37;;;;;;;0.20;0.20;;;;;;;;;;6322681;28;20453;-81
2024/03/12 09:38:39;;;;;;;0.20;0.20;;;;;;;;;;6319211;28;20097;-80
2024/03/12 09:41:46;;;;;;;0.30;0.30;;;;;;;;;;6323913;28;20024;-81
2024/03/12 09:44:47;;;;;;;0.35;0.20;;;;;;;;;;6313081;28;20033;-82
2024/03/12 09:47:48;;;;;;;0.30;0.20;;;;;;;;;;6305553;28;20040;-81
2024/03/12 09:50:51;;;;;;;0.10;0.10;;;;;;;;;;6305657;28;20131;-81
2024/03/12 09:53:52;;;;;;;0.20;0.20;;;;;;;;;;6321799;28;20094;-79
2024/03/12 09:56:54;;;;;;;0.13;0.13;;;;;;;;;;6323093;28;20035;-81
2024/03/12 09:59:55;;;;;;;0.20;0.20;;;;;;;;;;6319758;28;20431;-79
2024/03/12 10:02:55;;;;;;;0.27;0.23;;;;;;;;;;6324371;28;20024;-80
2024/03/12 10:05:55;;;;;;;0.23;0.20;;;;;;;;;;6303722;28;20058;-80
2024/03/12 10:08:57;;;;;;;0.20;0.20;;;;;;;;;;6324428;28;20112;-80
2024/03/12 10:12:01;;;;;;;;;;;;;;;;;;6323569;28;20051;-79
2024/03/12 10:15:02;;;;;;;0.20;0.20;;;;;;;;;;6324643;28;20018;-78
2024/03/12 10:18:06;;;;;;;0.20;0.20;;;;;;;;;;6322408;28;20097;-79
2024/03/12 10:21:07;;;;;;;0.20;0.10;;;;;;;;;;6321842;28;20035;-79
2024/03/12 10:24:13;;;;;;;0.40;0.20;;;;;;;;;;6306128;28;20028;-80
2024/03/12 10:27:14;;;;;;;0.15;0.15;;;;;;;;;;6322732;28;20040;-79
2024/03/12 10:30:24;;;;;;;0.20;0.20;;;;;;;;;;6323588;28;20039;-79
2024/03/12 10:33:25;;;;;;;0.40;0.20;;;;;;;;;;6324233;28;20381;-79
2024/03/12 10:36:29;;;;;;;0.20;0.20;;;;;;;;;;6320800;28;20046;-80
2024/03/12 10:39:32;;;;;;;0.52;0.20;;;;;;;;;;6322832;28;20487;-79
2024/03/12 10:42:33;;;;;;;0.20;0.20;;;;;;;;;;6321338;28;20435;-79
2024/03/12 10:45:34;;;;;;;0.20;0.20;;;;;;;;;;6327958;28;20480;-84
2024/03/12 10:48:36;;;;;;;0.20;0.20;;;;;;;;;;6324736;28;20028;-84
2024/03/12 10:51:40;;;;;;;0.40;0.30;;;;;;;;;;6314851;28;20063;-84
2024/03/12 10:54:41;;;;;;;0.20;0.20;;;;;;;;;;6294800;28;20072;-81
2024/03/12 10:57:41;;;;;;;0.20;0.20;;;;;;;;;;6317096;28;20034;-81
2024/03/12 11:00:42;;;;;;;0.37;0.20;;;;;;;;;;6321484;28;20092;-81
2024/03/12 11:03:42;;;;;;;0.63;0.30;;;;;;;;;;6323347;28;20032;-83
2024/03/12 11:06:45;;;;;;;0.20;0.20;;;;;;;;;;6300933;28;20484;-83
2024/03/12 11:09:45;;;;;;;0.40;0.30;;;;;;;;;;6322155;28;20396;-82
2024/03/12 11:12:45;;;;;;;0.30;0.23;;;;;;;;;;6321967;28;20032;-81
2024/03/12 11:15:46;;;;;;;0.13;0.10;;;;;;;;;;6322782;28;20050;-82
2024/03/12 11:18:49;;;;;;;0.30;0.20;;;;;;;;;;6304900;28;20028;-79
2024/03/12 11:21:59;;;;;;;0.20;0.20;;;;;;;;;;6322040;28;20020;-78
2024/03/12 11:25:04;;;;;;;0.40;0.20;;;;;;;;;;6321454;28;20040;-79
2024/03/12 11:28:23;;;;;;;0.35;0.10;;;;;;;;;;6313088;28;20423;-79
2024/03/12 11:31:25;;;;;;;0.28;0.20;;;;;;;;;;6312902;28;20052;-79
2024/03/12 11:34:31;;;;;;;0.30;0.30;;;;;;;;;;6297121;28;20024;-79
2024/03/12 11:37:32;;;;;;;0.20;0.20;;;;;;;;;;6318727;28;20039;-78
2024/03/12 11:40:39;;;;;;;0.20;0.20;;;;;;;;;;6322123;28;20020;-79
2024/03/12 11:43:40;;;;;;;0.20;0.20;;;;;;;;;;6320618;28;20035;-79
2024/03/12 11:46:41;;;;;;;0.38;0.30;;;;;;;;;;6320859;28;20043;-78
2024/03/12 11:49:41;;;;;;;1.00;0.22;;;;;;;;;;6321503;28;20379;-79
2024/03/12 11:52:43;;;;;;;0.10;0.10;;;;;;;;;;6320669;28;20381;-79
2024/03/12 11:56:16;;;;;;;0.50;0.32;;;;;;;;;;6321837;28;20039;-78
2024/03/12 11:59:23;;;;;;;0.30;0.30;;;;;;;;;;6319061;28;20060;-79
2024/03/12 12:02:26;;;;;;;0.57;0.30;;;;;;;;;;6319431;28;20472;-79
2024/03/12 12:05:26;;;;;;;0.30;0.30;;;;;;;;;;6318763;28;20107;-78
2024/03/12 12:08:27;;;;;;;0.40;0.40;;;;;;;;;;6320004;28;20384;-78
2024/03/12 12:11:28;;;;;;;0.37;0.27;;;;;;;;;;6298410;28;20361;-78
2024/03/12 12:14:29;;;;;;;0.52;0.30;;;;;;;;;;6316870;28;20036;-78
2024/03/12 12:17:31;;;;;;;0.20;0.20;;;;;;;;;;6310525;28;20036;-78
2024/03/12 12:20:31;;;;;;;0.65;0.35;;;;;;;;;;6298780;28;20115;-79
2024/03/12 12:23:35;;;;;;;0.30;0.20;;;;;;;;;;6304511;28;20384;-78
2024/03/12 12:26:36;;;;;;;0.20;0.20;;;;;;;;;;6319921;28;20052;-77
2024/03/12 12:29:36;;;;;;;0.20;0.20;;;;;;;;;;6320096;28;20492;-76
2024/03/12 12:32:37;;;;;;;0.30;0.30;;;;;;;;;;6321009;28;20111;-79
2024/03/12 12:35:39;;;;;;;0.22;0.20;;;;;;;;;;6318556;28;20024;-77
2024/03/12 12:38:42;;;;;;;0.30;0.22;;;;;;;;;;6317526;28;20032;-77
2024/03/12 12:41:45;;;;;;;0.30;0.30;;;;;;;;;;6332476;28;20043;-77
2024/03/12 12:44:48;;;;;;;0.30;0.30;;;;;;;;;;6315675;28;20028;-77
2024/03/12 12:47:49;;;;;;;0.85;0.40;;;;;;;;;;6301217;28;20031;-77
2024/03/12 12:50:59;;;;;;;0.60;0.30;;;;;;;;;;6318635;28;20028;-77
2024/03/12 12:54:02;;;;;;;0.47;0.32;;;;;;;;;;6321620;28;20020;-77
2024/03/12 12:57:03;;;;;;;0.25;0.20;;;;;;;;;;6326622;28;20051;-77
2024/03/12 13:00:15;;;;;;;0.23;0.23;;;;;;;;;;6321115;28;20020;-77
2024/03/12 13:03:16;;;;;;;0.65;0.30;;;;;;;;;;6324606;28;20057;-77
2024/03/12 13:06:18;;;;;;;0.30;0.30;;;;;;;;;;6323976;28;20883;-76
2024/03/12 13:09:38;;;;;;;0.30;0.30;;;;;;;;;;6323765;28;20036;-76
2024/03/12 13:12:40;;;;;;;0.22;0.22;;;;;;;;;;6324324;28;20028;-76
2024/03/12 13:15:40;;;;;;;0.80;0.40;;;;;;;;;;6314796;28;20480;-77
2024/03/12 13:18:44;;;;;;;0.33;0.30;;;;;;;;;;6317377;28;20028;-77
2024/03/12 13:21:45;;;;;;;0.20;0.20;;;;;;;;;;6323351;28;20016;-77
2024/03/12 13:24:45;;;;;;;0.70;0.30;;;;;;;;;;6323338;28;20034;-76
2024/03/12 13:27:46;;;;;;;0.27;0.20;;;;;;;;;;6324831;28;20540;-76
2024/03/12 13:30:46;;;;;;;0.37;0.37;;;;;;;;;;6320410;28;20504;-77
2024/03/12 13:33:47;;;;;;;0.73;0.30;;;;;;;;;;6322134;28;20032;-77
2024/03/12 13:36:47;;;;;;;1.07;0.70;;;;;;;;;;6313044;28;20177;-77
2024/03/12 13:39:47;;;;;;;1.03;0.60;;;;;;;;;;6299982;28;20064;-76
2024/03/12 13:42:48;;;;;;;0.40;0.40;;;;;;;;;;6289575;28;20500;-77
2024/03/12 13:45:48;;;;;;;0.30;0.30;;;;;;;;;;6318597;28;20036;-76
2024/03/12 13:49:08;;;;;;;0.35;0.35;;;;;;;;;;6325228;28;20024;-76
2024/03/12 13:52:09;;;;;;;0.32;0.30;;;;;;;;;;6319953;28;20036;-76
2024/03/12 13:55:11;;;;;;;0.63;0.30;;;;;;;;;;6324507;28;20024;-76
2024/03/12 13:58:11;;;;;;;0.40;0.40;;;;;;;;;;6320764;28;20035;-75
2024/03/12 14:01:12;;;;;;;0.40;0.40;;;;;;;;;;6322818;28;20074;-75
2024/03/12 14:04:13;;;;;;;0.30;0.30;;;;;;;;;;6323213;28;20269;-77
2024/03/12 14:07:19;;;;;;;0.40;0.40;;;;;;;;;;6322481;28;20469;-76
2024/03/12 14:10:19;;;;;;;1.00;0.50;;;;;;;;;;6321111;28;20027;-75
2024/03/12 14:13:21;;;;;;;0.47;0.40;;;;;;;;;;6322784;28;20059;-77
2024/03/12 14:16:21;;;;;;;0.60;0.35;;;;;;;;;;6306620;28;20055;-79
2024/03/12 14:19:21;;;;;;;0.60;0.60;;;;;;;;;;6323398;28;20020;-79
2024/03/12 14:22:22;;;;;;;0.60;0.40;;;;;;;;;;6319309;28;20020;-79
2024/03/12 14:25:24;;;;;;;0.38;0.38;;;;;;;;;;6279361;28;20045;-79
2024/03/12 14:28:26;;;;;;;0.40;0.40;;;;;;;;;;6315686;28;20036;-79
2024/03/12 14:31:27;;;;;;;0.43;0.40;;;;;;;;;;6324060;28;20024;-79
2024/03/12 14:34:28;;;;;;;0.60;0.47;;;;;;;;;;6282486;28;20033;-79
2024/03/12 14:37:28;;;;;;;0.43;0.43;;;;;;;;;;6310107;28;20111;-79
2024/03/12 14:40:29;;;;;;;1.77;0.37;;;;;;;;;;6299551;28;20473;-79
2024/03/12 14:43:30;;;;;;;0.52;0.32;;;;;;;;;;6313110;28;20099;-79
2024/03/12 14:46:30;;;;;;;0.40;0.40;;;;;;;;;;6304080;28;20043;-79
2024/03/12 14:49:31;;;;;;;1.13;0.50;;;;;;;;;;6307951;28;20385;-79
2024/03/12 14:52:31;;;;;;;1.00;0.60;;;;;;;;;;6320124;28;20023;-79
2024/03/12 14:55:32;;;;;;;1.45;0.52;;;;;;;;;;6306873;28;20035;-79
2024/03/12 14:58:32;;;;;;;0.60;0.50;;;;;;;;;;6322029;28;20346;-79
2024/03/12 15:01:32;;;;;;;0.93;0.50;;;;;;;;;;6323297;28;20024;-79
2024/03/12 15:04:35;;;;;;;0.50;0.50;;;;;;;;;;6322008;28;20472;-79
2024/03/12 15:07:35;;;;;;;0.70;0.50;;;;;;;;;;6320639;28;20179;-79
2024/03/12 15:10:36;;;;;;;0.53;0.43;;;;;;;;;;6322216;28;20032;-79
2024/03/12 15:13:36;;;;;;;0.63;0.32;;;;;;;;;;6297841;28;20047;-79
2024/03/12 15:16:39;;;;;;;0.73;0.53;;;;;;;;;;6304950;28;20036;-79
2024/03/12 15:19:39;;;;;;;0.50;0.47;;;;;;;;;;6322574;28;20023;-80
2024/03/12 15:22:40;;;;;;;0.50;0.50;;;;;;;;;;6302883;28;20028;-79
2024/03/12 15:25:41;;;;;;;1.13;0.50;;;;;;;;;;6322462;28;20070;-77
2024/03/12 15:28:41;;;;;;;0.80;0.70;;;;;;;;;;6304628;28;20058;-77
2024/03/12 15:31:45;;;;;;;1.27;0.80;;;;;;;;;;6320008;28;20020;-77
2024/03/12 15:34:45;;;;;;;1.25;1.05;;;;;;;;;;6317007;28;20031;-77
2024/03/12 15:37:45;;;;;;;1.80;1.00;;;;;;;;;;6316768;28;20485;-81
2024/03/12 15:40:46;;;;;;;0.70;0.70;;;;;;;;;;6321854;28;20388;-81
2024/03/12 15:43:46;;;;;;;0.60;0.60;;;;;;;;;;6322563;28;20107;-77
2024/03/12 15:46:47;;;;;;;2.47;1.67;;;;;;;;;;6322393;28;20024;-78
2024/03/12 15:49:47;;;;;;;1.40;1.20;;;;;;;;;;6321087;28;20506;-83
2024/03/12 15:52:47;;;;;;;2.87;1.10;;;;;;;;;;6320811;28;20032;-78
2024/03/12 15:55:48;;;;;;;0.77;0.77;;;;;;;;;;6321945;28;20032;-77
2024/03/12 15:58:50;;;;;;;1.20;0.67;;;;;;;;;;6322359;28;20024;-77
2024/03/12 16:01:53;;;;;;;1.15;0.60;;;;;;;;;;6321582;28;20031;-78
2024/03/12 16:04:53;;;;;;;1.45;0.70;;;;;;;;;;6278088;28;20022;-78
2024/03/12 16:07:53;;;;;;;0.70;0.60;;;;;;;;;;6308800;28;20053;-77
2024/03/12 16:10:54;;;;;;;1.57;0.50;;;;;;;;;;6305038;28;20068;-77
2024/03/12 16:13:55;;;;;;;0.80;0.60;;;;;;;;;;6312893;28;20370;-77
2024/03/12 16:16:55;;;;;;;0.55;0.55;;;;;;;;;;6325640;28;20392;-77
2024/03/12 16:19:56;;;;;;;1.50;0.60;;;;;;;;;;6323446;28;20028;-78
2024/03/12 16:22:56;;;;;;;1.40;0.90;;;;;;;;;;6305429;28;20629;-77
2024/03/12 16:25:56;;;;;;;0.70;0.53;;;;;;;;;;6323831;28;20056;-77
2024/03/12 16:28:57;;;;;;;0.80;0.70;;;;;;;;;;6320708;28;20016;-77
2024/03/12 16:31:57;;;;;;;0.97;0.60;;;;;;;;;;6312809;28;20033;-78
2024/03/12 16:34:57;;;;;;;1.10;0.70;;;;;;;;;;6310930;28;20031;-82
2024/03/12 16:37:58;;;;;;;0.60;0.50;;;;;;;;;;6307074;28;20028;-82
2024/03/12 16:40:58;;;;;;;0.93;0.70;;;;;;;;;;6305499;28;20430;-82
2024/03/12 16:43:59;;;;;;;0.77;0.77;;;;;;;;;;6326514;28;20465;-80
2024/03/12 16:47:04;;;;;;;0.90;0.60;;;;;;;;;;6306120;28;20123;-82
2024/03/12 16:50:07;;;;;;;1.05;0.73;;;;;;;;;;6304526;28;20034;-83
2024/03/12 16:53:08;;;;;;;0.82;0.70;;;;;;;;;;6303301;28;20043;-82
2024/03/12 16:56:09;;;;;;;1.40;0.70;;;;;;;;;;6304354;28;20028;-82
2024/03/12 16:59:09;;;;;;;0.90;0.73;;;;;;;;;;6325499;28;20028;-83
2024/03/12 17:02:12;;;;;;;1.17;0.80;;;;;;;;;;6325875;28;20337;-82
2024/03/12 17:05:13;;;;;;;1.25;0.77;;;;;;;;;;6324703;28;20070;-83
2024/03/12 17:08:13;;;;;;;1.95;1.00;;;;;;;;;;6306109;28;20188;-83
2024/03/12 17:11:13;;;;;;;1.10;0.90;;;;;;;;;;6325582;28;20028;-83
2024/03/12 17:14:14;;;;;;;0.90;0.70;;;;;;;;;;6311106;28;20024;-83
2024/03/12 17:17:16;;;;;;;1.00;0.80;;;;;;;;;;6296407;28;20540;-84
2024/03/12 17:20:17;;;;;;;2.17;0.73;;;;;;;;;;6302042;28;20025;-85
2024/03/12 17:23:17;;;;;;;1.13;0.70;;;;;;;;;;6298698;28;20066;-86
2024/03/12 17:26:19;;;;;;;1.03;0.80;;;;;;;;;;6324810;28;20040;-85
2024/03/12 17:29:19;;;;;;;1.63;0.77;;;;;;;;;;6306142;28;20031;-79
2024/03/12 17:32:20;;;;;;;0.80;0.80;;;;;;;;;;6305677;28;20028;-78
2024/03/12 17:35:21;;;;;;;1.30;0.80;;;;;;;;;;6322907;28;20027;-79
2024/03/12 17:38:22;;;;;;;1.33;0.80;;;;;;;;;;6324898;28;20399;-77
2024/03/12 17:41:23;;;;;;;;;;;;;;;;;;6323762;28;20049;-85
2024/03/12 17:44:26;;;;;;;1.10;0.73;;;;;;;;;;6325933;28;20375;-82
2024/03/12 17:47:28;;;;;;;0.90;0.88;;;;;;;;;;6324100;28;20027;-82
2024/03/12 17:50:30;;;;;;;1.45;0.95;;;;;;;;;;6323705;28;20023;-81
2024/03/12 17:53:30;;;;;;;;;;;;;;;;;;6306470;28;20024;-80
2024/03/12 17:56:36;;;;;;;0.73;0.65;;;;;;;;;;6323026;28;19961;-81
2024/03/12 17:59:38;;;;;;;1.73;1.27;;;;;;;;;;6325277;28;20062;-77
2024/03/12 18:02:39;;;;;;;1.00;0.90;;;;;;;;;;6324171;28;20020;-77
2024/03/12 18:05:39;;;;;;;0.80;0.80;;;;;;;;;;6323735;28;20377;-77
2024/03/12 18:08:42;;;;;;;0.80;0.80;;;;;;;;;;6320282;28;20020;-77
2024/03/12 18:11:42;;;;;;;1.50;1.10;;;;;;;;;;6320433;28;20028;-78
2024/03/12 18:14:43;;;;;;;1.20;1.00;;;;;;;;;;6319894;28;20048;-78
2024/03/12 18:17:47;;;;;;;1.90;1.48;;;;;;;;;;6321874;28;20559;-77